sensor_id;sensor_type;location;lat;lon;timestamp;pressure;altitude;pressure_sealevel;temperature;humidity
73566;BME280;61846;52.970;-3.168;2023-04-01T00:00:59;99126.89;;;14.04;45.95
73566;BME280;61846;52.970;-3.168;2023-04-01T00:03:24;99132.65;;;13.61;47.10
73566;BME280;61846;52.970;-3.168;2023-04-01T00:05:49;99137.25;;;13.86;46.46
73566;BME280;61846;52.970;-3.168;2023-04-01T00:08:15;99136.52;;;14.12;44.90
73566;BME280;61846;52.970;-3.168;2023-04-01T00:10:40;99135.50;;;14.38;45.00
73566;BME280;61846;52.970;-3.168;2023-04-01T00:13:06;99140.59;;;13.57;45.65
73566;BME280;61846;52.970;-3.168;2023-04-01T00:15:31;99137.03;;;14.01;45.49
73566;BME280;61846;52.970;-3.168;2023-04-01T00:17:56;99141.97;;;14.21;45.07
73566;BME280;61846;52.970;-3.168;2023-04-01T00:20:22;99143.46;;;13.95;46.11
73566;BME280;61846;52.970;-3.168;2023-04-01T00:22:47;99147.76;;;13.85;46.05
73566;BME280;61846;52.970;-3.168;2023-04-01T00:25:13;99145.58;;;14.48;45.31
73566;BME280;61846;52.970;-3.168;2023-04-01T00:27:38;99147.08;;;14.53;45.15
73566;BME280;61846;52.970;-3.168;2023-04-01T00:30:05;99149.53;;;14.80;44.50
73566;BME280;61846;52.970;-3.168;2023-04-01T00:32:29;99153.60;;;14.42;45.25
73566;BME280;61846;52.970;-3.168;2023-04-01T00:34:54;99153.98;;;14.10;46.24
73566;BME280;61846;52.970;-3.168;2023-04-01T00:37:20;99157.89;;;14.64;45.13
73566;BME280;61846;52.970;-3.168;2023-04-01T00:39:46;99159.08;;;14.11;45.82
73566;BME280;61846;52.970;-3.168;2023-04-01T00:42:11;99160.14;;;14.30;45.92
73566;BME280;61846;52.970;-3.168;2023-04-01T00:44:37;99160.62;;;14.32;44.78
73566;BME280;61846;52.970;-3.168;2023-04-01T00:47:02;99164.81;;;14.71;44.60
73566;BME280;61846;52.970;-3.168;2023-04-01T00:49:30;99167.84;;;14.55;45.06
73566;BME280;61846;52.970;-3.168;2023-04-01T00:51:55;99167.56;;;14.65;45.24
73566;BME280;61846;52.970;-3.168;2023-04-01T00:54:19;99171.29;;;14.32;45.68
73566;BME280;61846;52.970;-3.168;2023-04-01T00:56:48;99171.42;;;14.61;45.55
73566;BME280;61846;52.970;-3.168;2023-04-01T00:59:13;99173.72;;;14.11;46.30
73566;BME280;61846;52.970;-3.168;2023-04-01T01:01:35;99175.46;;;14.45;45.13
73566;BME280;61846;52.970;-3.168;2023-04-01T01:04:00;99177.55;;;14.51;45.49
73566;BME280;61846;52.970;-3.168;2023-04-01T01:06:37;99178.33;;;14.63;45.45
73566;BME280;61846;52.970;-3.168;2023-04-01T01:09:02;99185.21;;;12.41;46.60
73566;BME280;61846;52.970;-3.168;2023-04-01T01:11:22;99189.61;;;12.57;47.55
73566;BME280;61846;52.970;-3.168;2023-04-01T01:13:48;99187.21;;;12.34;47.42
73566;BME280;61846;52.970;-3.168;2023-04-01T01:16:13;99189.77;;;11.82;49.44
73566;BME280;61846;52.970;-3.168;2023-04-01T01:18:35;99189.25;;;13.58;46.18
73566;BME280;61846;52.970;-3.168;2023-04-01T01:21:18;99193.29;;;13.22;46.31
73566;BME280;61846;52.970;-3.168;2023-04-01T01:25:58;99193.24;;;13.74;45.98
73566;BME280;61846;52.970;-3.168;2023-04-01T01:28:27;99195.40;;;13.97;44.43
73566;BME280;61846;52.970;-3.168;2023-04-01T01:30:44;99198.72;;;13.51;45.20
73566;BME280;61846;52.970;-3.168;2023-04-01T01:33:13;99201.84;;;13.11;45.61
73566;BME280;61846;52.970;-3.168;2023-04-01T01:35:35;99205.41;;;13.21;45.24
73566;BME280;61846;52.970;-3.168;2023-04-01T01:38:00;99205.12;;;14.03;43.89
73566;BME280;61846;52.970;-3.168;2023-04-01T01:40:24;99203.98;;;13.73;44.04
73566;BME280;61846;52.970;-3.168;2023-04-01T01:42:53;99207.81;;;13.45;44.54
73566;BME280;61846;52.970;-3.168;2023-04-01T01:45:15;99207.46;;;13.22;44.15
73566;BME280;61846;52.970;-3.168;2023-04-01T01:47:40;99206.01;;;14.22;43.48
73566;BME280;61846;52.970;-3.168;2023-04-01T01:50:06;99207.69;;;13.84;44.88
73566;BME280;61846;52.970;-3.168;2023-04-01T01:52:30;99209.58;;;14.11;44.98
73566;BME280;61846;52.970;-3.168;2023-04-01T01:54:57;99211.70;;;13.79;45.45
73566;BME280;61846;52.970;-3.168;2023-04-01T01:57:24;99212.85;;;14.22;45.10
73566;BME280;61846;52.970;-3.168;2023-04-01T01:59:47;99217.13;;;13.39;46.03
73566;BME280;61846;52.970;-3.168;2023-04-01T02:02:12;99224.78;;;12.66;48.43
73566;BME280;61846;52.970;-3.168;2023-04-01T02:04:39;99224.83;;;14.04;45.81
73566;BME280;61846;52.970;-3.168;2023-04-01T02:07:05;99229.31;;;13.23;46.41
73566;BME280;61846;52.970;-3.168;2023-04-01T02:09:29;99230.07;;;14.37;45.14
73566;BME280;61846;52.970;-3.168;2023-04-01T02:11:57;99235.85;;;14.39;44.31
73566;BME280;61846;52.970;-3.168;2023-04-01T02:14:21;99239.03;;;14.43;43.86
73566;BME280;61846;52.970;-3.168;2023-04-01T02:16:49;99242.06;;;13.99;44.68
73566;BME280;61846;52.970;-3.168;2023-04-01T02:19:11;99243.40;;;13.97;44.39
73566;BME280;61846;52.970;-3.168;2023-04-01T02:21:37;99244.82;;;14.23;43.95
73566;BME280;61846;52.970;-3.168;2023-04-01T02:24:04;99247.09;;;14.30;43.51
73566;BME280;61846;52.970;-3.168;2023-04-01T02:26:27;99248.41;;;13.97;44.08
73566;BME280;61846;52.970;-3.168;2023-04-01T02:28:53;99254.49;;;13.61;44.59
73566;BME280;61846;52.970;-3.168;2023-04-01T02:31:18;99255.59;;;14.40;43.38
73566;BME280;61846;52.970;-3.168;2023-04-01T02:33:43;99255.85;;;14.63;42.77
73566;BME280;61846;52.970;-3.168;2023-04-01T02:36:12;99254.90;;;14.69;42.20
73566;BME280;61846;52.970;-3.168;2023-04-01T02:38:36;99259.49;;;13.66;43.63
73566;BME280;61846;52.970;-3.168;2023-04-01T02:41:01;99260.64;;;12.44;44.39
73566;BME280;61846;52.970;-3.168;2023-04-01T02:43:26;99262.71;;;12.97;44.64
73566;BME280;61846;52.970;-3.168;2023-04-01T02:45:51;99265.24;;;11.21;47.88
73566;BME280;61846;52.970;-3.168;2023-04-01T02:48:17;99264.40;;;12.43;45.57
73566;BME280;61846;52.970;-3.168;2023-04-01T02:50:42;99268.13;;;12.10;47.01
73566;BME280;61846;52.970;-3.168;2023-04-01T02:53:08;99271.95;;;13.01;45.13
73566;BME280;61846;52.970;-3.168;2023-04-01T02:55:34;99272.66;;;13.10;44.91
73566;BME280;61846;52.970;-3.168;2023-04-01T02:57:59;99274.48;;;12.58;45.48
73566;BME280;61846;52.970;-3.168;2023-04-01T03:00:25;99272.61;;;12.66;45.87
73566;BME280;61846;52.970;-3.168;2023-04-01T03:02:50;99273.88;;;12.79;45.38
73566;BME280;61846;52.970;-3.168;2023-04-01T03:05:16;99273.97;;;13.43;44.42
73566;BME280;61846;52.970;-3.168;2023-04-01T03:07:41;99273.00;;;13.06;44.26
73566;BME280;61846;52.970;-3.168;2023-04-01T03:10:08;99274.74;;;12.85;45.32
73566;BME280;61846;52.970;-3.168;2023-04-01T03:12:32;99275.21;;;12.90;44.64
73566;BME280;61846;52.970;-3.168;2023-04-01T03:14:58;99273.77;;;13.39;44.60
73566;BME280;61846;52.970;-3.168;2023-04-01T03:17:23;99273.16;;;13.39;44.02
73566;BME280;61846;52.970;-3.168;2023-04-01T03:19:48;99276.96;;;13.88;43.23
73566;BME280;61846;52.970;-3.168;2023-04-01T03:22:14;99277.73;;;13.83;42.69
73566;BME280;61846;52.970;-3.168;2023-04-01T03:24:39;99281.65;;;13.28;43.18
73566;BME280;61846;52.970;-3.168;2023-04-01T03:27:05;99283.47;;;13.71;42.98
73566;BME280;61846;52.970;-3.168;2023-04-01T03:29:31;99287.25;;;13.16;43.23
73566;BME280;61846;52.970;-3.168;2023-04-01T03:31:56;99288.69;;;13.71;43.06
73566;BME280;61846;52.970;-3.168;2023-04-01T03:34:21;99292.20;;;13.91;42.90
73566;BME280;61846;52.970;-3.168;2023-04-01T03:36:47;99292.93;;;13.90;42.89
73566;BME280;61846;52.970;-3.168;2023-04-01T03:39:12;99294.48;;;13.72;42.98
73566;BME280;61846;52.970;-3.168;2023-04-01T03:41:38;99297.23;;;13.91;43.07
73566;BME280;61846;52.970;-3.168;2023-04-01T03:44:04;99298.18;;;13.74;43.14
73566;BME280;61846;52.970;-3.168;2023-04-01T03:46:29;99301.13;;;14.03;43.36
73566;BME280;61846;52.970;-3.168;2023-04-01T03:48:54;99303.07;;;14.04;43.25
73566;BME280;61846;52.970;-3.168;2023-04-01T03:51:20;99306.62;;;14.00;43.19
73566;BME280;61846;52.970;-3.168;2023-04-01T03:53:46;99312.86;;;13.36;44.70
73566;BME280;61846;52.970;-3.168;2023-04-01T03:56:11;99318.84;;;12.35;46.49
73566;BME280;61846;52.970;-3.168;2023-04-01T03:58:37;99319.11;;;12.35;46.69
73566;BME280;61846;52.970;-3.168;2023-04-01T04:01:02;99324.72;;;12.84;45.99
73566;BME280;61846;52.970;-3.168;2023-04-01T04:03:27;99330.92;;;12.24;47.26
73566;BME280;61846;52.970;-3.168;2023-04-01T04:05:53;99333.37;;;13.20;45.97
73566;BME280;61846;52.970;-3.168;2023-04-01T04:08:18;99342.46;;;13.11;44.99
73566;BME280;61846;52.970;-3.168;2023-04-01T04:10:44;99346.23;;;13.39;45.11
73566;BME280;61846;52.970;-3.168;2023-04-01T04:13:10;99346.70;;;12.11;47.28
73566;BME280;61846;52.970;-3.168;2023-04-01T04:15:35;99350.70;;;12.66;46.92
73566;BME280;61846;52.970;-3.168;2023-04-01T04:18:01;99351.75;;;12.90;45.89
73566;BME280;61846;52.970;-3.168;2023-04-01T04:20:26;99357.31;;;13.05;43.62
73566;BME280;61846;52.970;-3.168;2023-04-01T04:22:52;99360.20;;;13.00;43.60
73566;BME280;61846;52.970;-3.168;2023-04-01T04:25:17;99363.22;;;13.24;42.59
73566;BME280;61846;52.970;-3.168;2023-04-01T04:27:43;99364.16;;;12.91;43.10
73566;BME280;61846;52.970;-3.168;2023-04-01T04:30:09;99365.85;;;13.11;42.73
73566;BME280;61846;52.970;-3.168;2023-04-01T04:32:34;99365.75;;;13.48;42.37
73566;BME280;61846;52.970;-3.168;2023-04-01T04:35:00;99370.81;;;13.04;43.19
73566;BME280;61846;52.970;-3.168;2023-04-01T04:37:25;99373.55;;;13.18;43.00
73566;BME280;61846;52.970;-3.168;2023-04-01T04:39:50;99372.67;;;13.04;43.57
73566;BME280;61846;52.970;-3.168;2023-04-01T04:42:16;99374.43;;;13.24;42.08
73566;BME280;61846;52.970;-3.168;2023-04-01T04:44:41;99376.50;;;13.51;42.66
73566;BME280;61846;52.970;-3.168;2023-04-01T04:47:07;99379.29;;;13.62;42.67
73566;BME280;61846;52.970;-3.168;2023-04-01T04:49:32;99382.50;;;13.64;42.45
73566;BME280;61846;52.970;-3.168;2023-04-01T04:51:58;99389.52;;;13.47;42.59
73566;BME280;61846;52.970;-3.168;2023-04-01T04:54:23;99392.46;;;13.47;43.03
73566;BME280;61846;52.970;-3.168;2023-04-01T04:56:51;99396.53;;;13.02;43.37
73566;BME280;61846;52.970;-3.168;2023-04-01T04:59:14;99399.82;;;12.90;44.26
73566;BME280;61846;52.970;-3.168;2023-04-01T05:01:40;99399.89;;;12.23;45.71
73566;BME280;61846;52.970;-3.168;2023-04-01T05:04:05;99402.81;;;12.72;44.76
73566;BME280;61846;52.970;-3.168;2023-04-01T05:06:31;99404.34;;;12.09;45.40
73566;BME280;61846;52.970;-3.168;2023-04-01T05:08:56;99406.21;;;12.69;44.05
73566;BME280;61846;52.970;-3.168;2023-04-01T05:11:22;99405.50;;;12.74;43.54
73566;BME280;61846;52.970;-3.168;2023-04-01T05:13:47;99410.79;;;12.76;43.79
73566;BME280;61846;52.970;-3.168;2023-04-01T05:16:15;99416.70;;;13.22;43.23
73566;BME280;61846;52.970;-3.168;2023-04-01T05:18:38;99421.39;;;13.36;42.66
73566;BME280;61846;52.970;-3.168;2023-04-01T05:21:06;99427.47;;;12.41;44.62
73566;BME280;61846;52.970;-3.168;2023-04-01T05:23:31;99432.91;;;12.74;44.13
73566;BME280;61846;52.970;-3.168;2023-04-01T05:25:55;99436.30;;;11.85;45.25
73566;BME280;61846;52.970;-3.168;2023-04-01T05:28:20;99445.95;;;10.90;46.20
73566;BME280;61846;52.970;-3.168;2023-04-01T05:30:46;99442.66;;;11.85;45.09
73566;BME280;61846;52.970;-3.168;2023-04-01T05:33:12;99447.82;;;10.89;45.53
73566;BME280;61846;52.970;-3.168;2023-04-01T05:35:37;99452.72;;;10.17;47.30
73566;BME280;61846;52.970;-3.168;2023-04-01T05:38:03;99453.32;;;11.05;45.46
73566;BME280;61846;52.970;-3.168;2023-04-01T05:40:28;99453.85;;;12.04;43.99
73566;BME280;61846;52.970;-3.168;2023-04-01T05:42:53;99456.07;;;12.81;42.78
73566;BME280;61846;52.970;-3.168;2023-04-01T05:45:19;99460.75;;;12.65;42.44
73566;BME280;61846;52.970;-3.168;2023-04-01T05:47:44;99465.62;;;11.99;43.72
73566;BME280;61846;52.970;-3.168;2023-04-01T05:50:10;99471.15;;;11.55;45.08
73566;BME280;61846;52.970;-3.168;2023-04-01T05:52:36;99476.58;;;11.06;46.15
73566;BME280;61846;52.970;-3.168;2023-04-01T05:55:02;99479.77;;;11.02;46.32
73566;BME280;61846;52.970;-3.168;2023-04-01T05:57:27;99481.81;;;11.38;46.01
73566;BME280;61846;52.970;-3.168;2023-04-01T05:59:52;99481.34;;;12.24;44.11
73566;BME280;61846;52.970;-3.168;2023-04-01T06:02:18;99484.66;;;11.83;45.37
73566;BME280;61846;52.970;-3.168;2023-04-01T06:04:44;99486.48;;;12.13;43.50
73566;BME280;61846;52.970;-3.168;2023-04-01T06:07:11;99490.97;;;12.31;43.63
73566;BME280;61846;52.970;-3.168;2023-04-01T06:09:35;99492.11;;;12.22;43.70
73566;BME280;61846;52.970;-3.168;2023-04-01T06:12:15;99497.95;;;12.97;43.08
73566;BME280;61846;52.970;-3.168;2023-04-01T06:14:34;99498.56;;;12.64;42.80
73566;BME280;61846;52.970;-3.168;2023-04-01T06:17:04;99504.24;;;12.77;42.67
73566;BME280;61846;52.970;-3.168;2023-04-01T06:19:26;99506.85;;;12.41;43.11
73566;BME280;61846;52.970;-3.168;2023-04-01T06:22:02;99510.35;;;12.51;43.39
73566;BME280;61846;52.970;-3.168;2023-04-01T06:24:17;99513.96;;;11.95;44.18
73566;BME280;61846;52.970;-3.168;2023-04-01T06:26:37;99516.49;;;12.23;44.14
73566;BME280;61846;52.970;-3.168;2023-04-01T06:29:18;99519.66;;;12.24;43.22
73566;BME280;61846;52.970;-3.168;2023-04-01T06:31:35;99519.87;;;12.27;42.74
73566;BME280;61846;52.970;-3.168;2023-04-01T06:34:02;99518.72;;;12.52;42.54
73566;BME280;61846;52.970;-3.168;2023-04-01T06:38:54;99523.97;;;11.73;43.09
73566;BME280;61846;52.970;-3.168;2023-04-01T06:41:23;99526.61;;;12.40;42.12
73566;BME280;61846;52.970;-3.168;2023-04-01T06:43:42;99531.29;;;12.61;42.83
73566;BME280;61846;52.970;-3.168;2023-04-01T06:46:04;99539.53;;;12.09;42.86
73566;BME280;61846;52.970;-3.168;2023-04-01T06:48:36;99545.50;;;12.47;42.36
73566;BME280;61846;52.970;-3.168;2023-04-01T06:50:55;99549.07;;;11.71;43.22
73566;BME280;61846;52.970;-3.168;2023-04-01T06:53:19;99553.09;;;12.47;42.45
73566;BME280;61846;52.970;-3.168;2023-04-01T06:55:43;99558.97;;;12.65;41.00
73566;BME280;61846;52.970;-3.168;2023-04-01T06:58:13;99565.24;;;12.76;41.09
73566;BME280;61846;52.970;-3.168;2023-04-01T07:00:33;99567.04;;;12.97;40.75
73566;BME280;61846;52.970;-3.168;2023-04-01T07:03:06;99568.82;;;12.87;41.33
73566;BME280;61846;52.970;-3.168;2023-04-01T07:05:23;99573.44;;;11.73;43.10
73566;BME280;61846;52.970;-3.168;2023-04-01T07:07:52;99577.56;;;11.83;43.70
73566;BME280;61846;52.970;-3.168;2023-04-01T07:10:18;99575.49;;;12.02;42.76
73566;BME280;61846;52.970;-3.168;2023-04-01T07:12:45;99586.53;;;10.44;45.58
73566;BME280;61846;52.970;-3.168;2023-04-01T07:15:13;99590.71;;;11.78;44.02
73566;BME280;61846;52.970;-3.168;2023-04-01T07:17:32;99597.30;;;11.65;44.39
73566;BME280;61846;52.970;-3.168;2023-04-01T07:20:01;99599.60;;;11.24;45.13
73566;BME280;61846;52.970;-3.168;2023-04-01T07:22:27;99601.84;;;11.36;44.14
73566;BME280;61846;52.970;-3.168;2023-04-01T07:24:48;99601.35;;;11.33;44.80
73566;BME280;61846;52.970;-3.168;2023-04-01T07:27:14;99602.49;;;11.61;44.00
73566;BME280;61846;52.970;-3.168;2023-04-01T07:29:38;99608.52;;;11.31;45.27
73566;BME280;61846;52.970;-3.168;2023-04-01T07:32:13;99610.54;;;11.98;44.14
73566;BME280;61846;52.970;-3.168;2023-04-01T07:34:34;99618.90;;;10.55;46.07
73566;BME280;61846;52.970;-3.168;2023-04-01T07:36:59;99629.43;;;11.33;45.90
73566;BME280;61846;52.970;-3.168;2023-04-01T07:39:28;99633.52;;;11.38;45.81
73566;BME280;61846;52.970;-3.168;2023-04-01T07:41:51;99637.48;;;11.04;44.58
73566;BME280;61846;52.970;-3.168;2023-04-01T07:44:15;99641.09;;;11.10;45.11
73566;BME280;61846;52.970;-3.168;2023-04-01T07:46:50;99647.91;;;11.79;44.49
73566;BME280;61846;52.970;-3.168;2023-04-01T07:49:06;99652.46;;;11.05;45.08
73566;BME280;61846;52.970;-3.168;2023-04-01T07:51:31;99653.76;;;9.95;47.44
73566;BME280;61846;52.970;-3.168;2023-04-01T07:54:00;99661.63;;;11.26;45.47
73566;BME280;61846;52.970;-3.168;2023-04-01T07:56:22;99666.03;;;11.05;46.46
73566;BME280;61846;52.970;-3.168;2023-04-01T07:58:52;99672.30;;;10.58;47.59
73566;BME280;61846;52.970;-3.168;2023-04-01T08:01:16;99674.13;;;10.44;47.19
73566;BME280;61846;52.970;-3.168;2023-04-01T08:03:46;99678.40;;;11.72;45.53
73566;BME280;61846;52.970;-3.168;2023-04-01T08:06:05;99680.75;;;11.94;44.14
73566;BME280;61846;52.970;-3.168;2023-04-01T08:08:35;99682.14;;;11.74;44.47
73566;BME280;61846;52.970;-3.168;2023-04-01T08:10:54;99691.56;;;11.90;44.76
73566;BME280;61846;52.970;-3.168;2023-04-01T08:13:25;99699.56;;;11.71;44.92
73566;BME280;61846;52.970;-3.168;2023-04-01T08:15:49;99697.22;;;12.18;43.95
73566;BME280;61846;52.970;-3.168;2023-04-01T08:18:18;99699.91;;;11.52;43.69
73566;BME280;61846;52.970;-3.168;2023-04-01T08:20:38;99700.37;;;11.56;43.56
73566;BME280;61846;52.970;-3.168;2023-04-01T08:23:05;99705.17;;;10.33;46.15
73566;BME280;61846;52.970;-3.168;2023-04-01T08:25:27;99709.93;;;11.23;44.75
73566;BME280;61846;52.970;-3.168;2023-04-01T08:27:54;99712.66;;;11.33;44.67
73566;BME280;61846;52.970;-3.168;2023-04-01T08:30:19;99712.79;;;11.45;44.61
73566;BME280;61846;52.970;-3.168;2023-04-01T08:32:44;99716.15;;;11.71;43.99
73566;BME280;61846;52.970;-3.168;2023-04-01T08:35:13;99718.35;;;11.71;43.96
73566;BME280;61846;52.970;-3.168;2023-04-01T08:37:36;99719.96;;;11.70;44.02
73566;BME280;61846;52.970;-3.168;2023-04-01T08:40:00;99723.96;;;11.85;42.94
73566;BME280;61846;52.970;-3.168;2023-04-01T08:42:44;99726.08;;;11.93;44.05
73566;BME280;61846;52.970;-3.168;2023-04-01T08:45:00;99726.57;;;12.11;43.42
73566;BME280;61846;52.970;-3.168;2023-04-01T08:47:24;99733.55;;;11.38;44.65
73566;BME280;61846;52.970;-3.168;2023-04-01T08:49:53;99736.80;;;11.51;44.99
73566;BME280;61846;52.970;-3.168;2023-04-01T08:52:19;99739.54;;;10.87;45.17
73566;BME280;61846;52.970;-3.168;2023-04-01T08:54:48;99744.06;;;11.55;44.94
73566;BME280;61846;52.970;-3.168;2023-04-01T08:57:00;99749.89;;;11.85;44.21
73566;BME280;61846;52.970;-3.168;2023-04-01T08:59:31;99756.93;;;11.46;44.76
73566;BME280;61846;52.970;-3.168;2023-04-01T09:04:25;99763.35;;;10.10;45.86
73566;BME280;61846;52.970;-3.168;2023-04-01T09:06:48;99766.98;;;10.58;45.48
73566;BME280;61846;52.970;-3.168;2023-04-01T09:11:42;99767.97;;;11.04;45.16
73566;BME280;61846;52.970;-3.168;2023-04-01T09:14:07;99770.11;;;11.22;45.36
73566;BME280;61846;52.970;-3.168;2023-04-01T09:16:31;99772.99;;;11.39;44.66
73566;BME280;61846;52.970;-3.168;2023-04-01T09:18:57;99775.47;;;11.56;44.54
73566;BME280;61846;52.970;-3.168;2023-04-01T09:21:24;99771.86;;;12.29;42.15
73566;BME280;61846;52.970;-3.168;2023-04-01T09:23:58;99778.18;;;12.04;42.96
73566;BME280;61846;52.970;-3.168;2023-04-01T09:26:16;99777.67;;;11.24;43.43
73566;BME280;61846;52.970;-3.168;2023-04-01T09:28:35;99778.61;;;12.25;42.70
73566;BME280;61846;52.970;-3.168;2023-04-01T09:35:47;99778.11;;;12.80;41.61
73566;BME280;61846;52.970;-3.168;2023-04-01T09:38:21;99777.50;;;12.72;41.12
73566;BME280;61846;52.970;-3.168;2023-04-01T09:40:44;99781.36;;;12.28;43.57
73566;BME280;61846;52.970;-3.168;2023-04-01T09:45:37;99785.70;;;12.26;43.09
73566;BME280;61846;52.970;-3.168;2023-04-01T09:48:07;99790.70;;;11.49;46.53
73566;BME280;61846;52.970;-3.168;2023-04-01T09:50:29;99790.62;;;12.43;43.74
73566;BME280;61846;52.970;-3.168;2023-04-01T09:52:48;99798.06;;;10.47;45.14
73566;BME280;61846;52.970;-3.168;2023-04-01T09:55:24;99801.50;;;11.11;43.53
73566;BME280;61846;52.970;-3.168;2023-04-01T10:00:15;99806.03;;;12.59;40.05
73566;BME280;61846;52.970;-3.168;2023-04-01T10:02:40;99812.73;;;13.17;40.09
73566;BME280;61846;52.970;-3.168;2023-04-01T10:07:40;99821.01;;;10.63;43.86
73566;BME280;61846;52.970;-3.168;2023-04-01T10:12:20;99823.18;;;12.97;39.53
73566;BME280;61846;52.970;-3.168;2023-04-01T10:14:46;99826.40;;;14.03;40.36
73566;BME280;61846;52.970;-3.168;2023-04-01T10:17:12;99838.35;;;12.78;41.49
73566;BME280;61846;52.970;-3.168;2023-04-01T10:24:33;99845.31;;;12.82;42.43
73566;BME280;61846;52.970;-3.168;2023-04-01T10:26:57;99846.78;;;12.27;42.15
73566;BME280;61846;52.970;-3.168;2023-04-01T10:29:26;99852.41;;;12.50;42.11
73566;BME280;61846;52.970;-3.168;2023-04-01T10:36:35;99863.88;;;11.81;43.35
73566;BME280;61846;52.970;-3.168;2023-04-01T10:39:03;99868.62;;;11.35;44.42
73566;BME280;61846;52.970;-3.168;2023-04-01T10:41:32;99876.05;;;10.73;44.79
73566;BME280;61846;52.970;-3.168;2023-04-01T10:43:50;99880.31;;;11.68;44.45
73566;BME280;61846;52.970;-3.168;2023-04-01T10:48:52;99887.01;;;11.94;44.70
73566;BME280;61846;52.970;-3.168;2023-04-01T10:53:43;99895.63;;;11.17;44.91
73566;BME280;61846;52.970;-3.168;2023-04-01T10:56:05;99896.83;;;11.04;45.38
73566;BME280;61846;52.970;-3.168;2023-04-01T10:58:32;99900.54;;;10.79;45.94
73566;BME280;61846;52.970;-3.168;2023-04-01T11:15:26;99932.26;;;10.29;45.79
73566;BME280;61846;52.970;-3.168;2023-04-01T11:20:24;99939.79;;;10.61;44.54
73566;BME280;61846;52.970;-3.168;2023-04-01T11:22:44;99946.18;;;10.94;44.45
73566;BME280;61846;52.970;-3.168;2023-04-01T11:25:09;99954.57;;;10.81;44.54
73566;BME280;61846;52.970;-3.168;2023-04-01T11:27:35;99954.13;;;10.81;43.91
73566;BME280;61846;52.970;-3.168;2023-04-01T11:29:58;99963.97;;;10.65;43.44
73566;BME280;61846;52.970;-3.168;2023-04-01T11:32:20;99970.18;;;10.05;43.81
73566;BME280;61846;52.970;-3.168;2023-04-01T11:34:50;99972.46;;;11.22;44.04
73566;BME280;61846;52.970;-3.168;2023-04-01T11:37:10;99976.92;;;10.42;43.67
73566;BME280;61846;52.970;-3.168;2023-04-01T11:39:35;99979.47;;;11.25;42.77
73566;BME280;61846;52.970;-3.168;2023-04-01T11:42:03;99984.30;;;11.66;41.16
73566;BME280;61846;52.970;-3.168;2023-04-01T11:44:20;99991.33;;;10.93;43.20
73566;BME280;61846;52.970;-3.168;2023-04-01T11:46:59;99993.88;;;11.36;43.35
73566;BME280;61846;52.970;-3.168;2023-04-01T11:49:24;99997.74;;;11.40;41.61
73566;BME280;61846;52.970;-3.168;2023-04-01T11:51:44;99997.66;;;11.36;41.94
73566;BME280;61846;52.970;-3.168;2023-04-01T11:54:07;100001.31;;;10.86;42.81
73566;BME280;61846;52.970;-3.168;2023-04-01T11:56:40;100000.09;;;10.94;42.86
73566;BME280;61846;52.970;-3.168;2023-04-01T11:59:01;100001.92;;;11.46;41.80
73566;BME280;61846;52.970;-3.168;2023-04-01T12:01:27;100004.61;;;11.33;40.62
73566;BME280;61846;52.970;-3.168;2023-04-01T12:03:59;100009.25;;;11.85;41.57
73566;BME280;61846;52.970;-3.168;2023-04-01T12:06:14;100010.86;;;11.85;41.43
73566;BME280;61846;52.970;-3.168;2023-04-01T12:08:41;100010.79;;;12.64;39.62
73566;BME280;61846;52.970;-3.168;2023-04-01T12:11:04;100016.05;;;13.28;40.71
73566;BME280;61846;52.970;-3.168;2023-04-01T12:13:32;100016.83;;;12.78;38.84
73566;BME280;61846;52.970;-3.168;2023-04-01T12:16:02;100017.18;;;13.66;37.48
73566;BME280;61846;52.970;-3.168;2023-04-01T12:18:22;100027.27;;;13.45;38.83
73566;BME280;61846;52.970;-3.168;2023-04-01T12:20:49;100029.67;;;13.46;39.89
73566;BME280;61846;52.970;-3.168;2023-04-01T12:23:20;100030.20;;;13.03;38.54
73566;BME280;61846;52.970;-3.168;2023-04-01T12:25:41;100038.27;;;13.86;36.28
73566;BME280;61846;52.970;-3.168;2023-04-01T12:28:04;100036.33;;;14.66;37.27
73566;BME280;61846;52.970;-3.168;2023-04-01T12:30:37;100043.04;;;13.92;35.85
73566;BME280;61846;52.970;-3.168;2023-04-01T12:32:59;100053.14;;;13.71;35.62
73566;BME280;61846;52.970;-3.168;2023-04-01T12:35:21;100043.97;;;13.77;36.54
73566;BME280;61846;52.970;-3.168;2023-04-01T12:37:44;100050.41;;;14.03;37.94
73566;BME280;61846;52.970;-3.168;2023-04-01T12:40:23;100049.46;;;13.61;37.21
73566;BME280;61846;52.970;-3.168;2023-04-01T12:42:41;100051.10;;;13.28;39.18
73566;BME280;61846;52.970;-3.168;2023-04-01T12:45:05;100056.86;;;13.58;38.31
73566;BME280;61846;52.970;-3.168;2023-04-01T12:49:56;100060.55;;;13.47;37.58
73566;BME280;61846;52.970;-3.168;2023-04-01T12:52:13;100062.10;;;13.27;35.90
73566;BME280;61846;52.970;-3.168;2023-04-01T12:57:16;100073.56;;;13.12;37.92
73566;BME280;61846;52.970;-3.168;2023-04-01T12:59:43;100080.38;;;12.50;39.99
73566;BME280;61846;52.970;-3.168;2023-04-01T13:02:00;100080.30;;;12.07;39.39
73566;BME280;61846;52.970;-3.168;2023-04-01T13:04:33;100085.38;;;12.84;39.23
73566;BME280;61846;52.970;-3.168;2023-04-01T13:06:53;100090.01;;;12.72;39.29
73566;BME280;61846;52.970;-3.168;2023-04-01T13:09:21;100093.03;;;12.36;39.54
73566;BME280;61846;52.970;-3.168;2023-04-01T13:11:46;100102.70;;;13.15;38.90
73566;BME280;61846;52.970;-3.168;2023-04-01T13:14:16;100103.15;;;13.49;38.26
73566;BME280;61846;52.970;-3.168;2023-04-01T13:16:31;100107.34;;;13.10;39.28
73566;BME280;61846;52.970;-3.168;2023-04-01T13:18:58;100111.61;;;11.95;40.91
73566;BME280;61846;52.970;-3.168;2023-04-01T13:21:24;100113.95;;;12.99;39.58
73566;BME280;61846;52.970;-3.168;2023-04-01T13:23:52;100116.74;;;12.15;39.76
73566;BME280;61846;52.970;-3.168;2023-04-01T13:26:16;100126.53;;;11.83;39.83
73566;BME280;61846;52.970;-3.168;2023-04-01T13:28:39;100134.37;;;12.07;40.50
73566;BME280;61846;52.970;-3.168;2023-04-01T13:31:04;100137.24;;;11.82;39.70
73566;BME280;61846;52.970;-3.168;2023-04-01T13:33:30;100149.02;;;11.33;40.73
73566;BME280;61846;52.970;-3.168;2023-04-01T13:35:57;100150.87;;;11.56;40.98
73566;BME280;61846;52.970;-3.168;2023-04-01T13:40:51;100150.50;;;10.98;42.04